Wednesday, November 22, 2017, 4:01 AM EST
Back to Local

KOFP, Hanover County Municipal

Location: Ashland, VA, United States Lat: 37.7
Local Time: 4:01 AM EST ( 9:01 GMT) Lon: -77.433
Time Zone: US/Eastern Elev: 203 ft

Show me the last for .
Show Decoded

2017-11-22 03:39 METAR KOFP 220839Z AUTO 24003KT 4SM RA BR SCT027 BKN047 OVC075 11/11 A2995 RMK
                 AO2 RAB0757 P0007 T01110111 $ =
2017-11-22 03:19 METAR KOFP 220819Z AUTO 00000KT 9SM -RA BKN026 BKN031 OVC039 11/11 A2997 RMK AO2
                 RAB0757 P0002 T01110111 $ =
2017-11-22 02:54 METAR KOFP 220754Z AUTO 00000KT 10SM BKN035 BKN047 OVC055 11/11 A2998 RMK AO2
                 SLP150 T01110111 $ =
2017-11-22 02:21 METAR KOFP 220721Z AUTO 00000KT 5SM BR FEW048 SCT060 OVC090 11/11 A2997 RMK AO2
                 T01060106 $ =
2017-11-22 02:14 METAR KOFP 220714Z AUTO 12003KT 2 1/2SM BR SCT048 SCT080 OVC095 10/ A2997 RMK
                 AO2 T0100 $ =
2017-11-22 02:05 METAR KOFP 220705Z AUTO 00000KT 1 3/4SM BR SCT047 BKN095 OVC110 10/10 A2998 RMK
                 AO2 VIS 1 1/4V2 1/2 T01000100 $ =
2017-11-22 01:54 METAR KOFP 220654Z AUTO 00000KT 7SM FEW055 BKN095 OVC110 11/11 A2998 RMK AO2
                 RAB15E51 SLP151 P0001 T01060106 =
2017-11-22 00:54 METAR KOFP 220554Z AUTO VRB05KT 10SM FEW041 SCT100 BKN120 11/10 A3001 RMK AO2
                 RAE52 SLP160 P0004 60013 T01110100 10133 20106 58020 =
2017-11-22 00:02 METAR KOFP 220502Z AUTO 00000KT 3SM RA BR BKN038 BKN048 OVC070 11/11 A3004 RMK
                 AO2 P0003 T01110106 =
2017-11-21 23:54 METAR KOFP 220454Z AUTO VRB03KT 1 1/2SM +RA BR BKN036 BKN046 OVC070 12/09 A3005
                 RMK AO2 RAB35 SLP175 P0009 T01170094 401720017 =
2017-11-21 23:52 METAR KOFP 220452Z AUTO 26005KT 1 3/4SM +RA SCT036 BKN046 OVC070 12/09 A3005 RMK
                 AO2 RAB35 P0008 =
2017-11-21 22:54 METAR KOFP 220354Z AUTO 18003KT 10SM FEW042 SCT049 OVC070 13/08 A3005 RMK AO2
                 SLP175 T01330078 =
2017-11-21 21:54 METAR KOFP 220254Z AUTO 19005KT 10SM OVC090 13/08 A3007 RMK AO2 SLP180 T01330078
                 58007 =
2017-11-21 20:54 METAR KOFP 220154Z AUTO 18005KT 10SM OVC085 13/07 A3008 RMK AO2 SLP185 T01330072
                 =
2017-11-21 19:54 METAR KOFP 220054Z AUTO 17008KT 10SM FEW080 13/07 A3009 RMK AO2 SLP189 T01330067
                 =
2017-11-21 18:54 METAR KOFP 212354Z AUTO VRB06KT 10SM CLR 13/07 A3009 RMK AO2 SLP188 T01280067
                 10172 20128 53001 =
2017-11-21 17:54 METAR KOFP 212254Z AUTO 17007KT 10SM CLR 14/07 A3008 RMK AO2 SLP185 T01440067 =
2017-11-21 16:54 METAR KOFP 212154Z AUTO VRB03KT 10SM CLR 14/07 A3008 RMK AO2 SLP187 T01390067 =
2017-11-21 15:54 METAR KOFP 212054Z AUTO 18006KT 10SM CLR 16/06 A3008 RMK AO2 SLP187 T01610061
                 56016 =
2017-11-21 14:54 METAR KOFP 211954Z AUTO 18012KT 10SM CLR 17/05 A3009 RMK AO2 SLP189 T01720050 =
2017-11-21 13:54 METAR KOFP 211854Z AUTO 19011KT 10SM CLR 17/04 A3010 RMK AO2 SLP192 T01670039 =
2017-11-21 12:54 METAR KOFP 211754Z AUTO 20008KT 10SM CLR 17/03 A3013 RMK AO2 SLP203 T01670028
                 10167 20033 58026 =
2017-11-21 11:54 METAR KOFP 211654Z AUTO 19012G19KT 10SM CLR 15/01 A3016 RMK AO2 SLP214 T01500006
                 =
2017-11-21 10:54 METAR KOFP 211554Z AUTO 20008KT 10SM CLR 14/M01 A3020 RMK AO2 SLP225 T01391011 =
2017-11-21 09:54 METAR KOFP 211454Z AUTO 18009KT 10SM CLR 12/M01 A3021 RMK AO2 SLP229 T01171011
                 58001 =
2017-11-21 08:54 METAR KOFP 211354Z AUTO 18006KT 10SM CLR 08/00 A3021 RMK AO2 SLP231 T00830000 =
2017-11-21 07:54 METAR KOFP 211254Z AUTO 16005KT 10SM CLR 04/M01 A3021 RMK AO2 SLP233 T00441011 =
2017-11-21 06:54 METAR KOFP 211154Z AUTO 17004KT 10SM CLR 03/M02 A3021 RMK AO2 SLP231 T00331017
                 10039 20028 53005 =
2017-11-21 05:54 METAR KOFP 211054Z AUTO 17005KT 10SM CLR 03/M02 A3020 RMK AO2 SLP229 T00281017 =
2017-11-21 04:54 METAR KOFP 210954Z AUTO 17006KT 10SM CLR 03/M01 A3020 RMK AO2 SLP227 T00281011 =

Support USWX by starting your Amazon purchase here.